»·PEaware :: N9298L KPDX-KBFI

N9298L :: KPDX-KBFI

FLIGHT INFORMATION

Flight Status: Arrived
Operator: Privately registered:
United States
More flights under this callsign
Pilot: Brendan O. (14500)
Aircraft: PIPER PA-32 SARATOGA
(PA32)
More flights by this aircraft type
Origin: KPDX Portland Intl
United States
Destination: KBFI Boeing Field/King Co Intl
United States
More flights between these airports :: More routes between these airports
Route: +BTG ISOGE
File this flight plan on PilotEdge
Remarks:
Altitude:
(Current/Filed)
6,000ft
Speed:
(Current/Filed)
145kts
Departed: 27-Nov-17 05:02 PM
Arrived: 27-Nov-17 05:50 PM
Distance/Time
Traveled:
117nm/0:48
Distance/Time
To Go:
Arrived

Flight Plot

Page will automatically refresh every two minutes.

Flight plan parsing failed; only flown route is shown


Map Options




Map Legend


Flown Route
Filed Route
Departure Airport
Arrival Airport
Navaid (VOR, NDB)
Fix

Horizontal Profiles

Position Reports

Time Latitude Longitude Heading Altitude Ground
Speed
27-Nov-17 16:47 45.586489 -122.581161 299 18ft 0kts
27-Nov-17 16:48 45.586489 -122.581161 299 18ft 0kts
27-Nov-17 16:49 45.586489 -122.581161 299 18ft 0kts
27-Nov-17 16:50 45.586489 -122.581161 299 18ft 0kts
27-Nov-17 16:51 45.586489 -122.581161 299 18ft 0kts
27-Nov-17 16:52 45.586489 -122.581161 299 18ft 0kts
27-Nov-17 16:53 45.586489 -122.581161 299 18ft 0kts
27-Nov-17 16:54 45.586489 -122.581161 299 18ft 0kts
27-Nov-17 16:55 45.586489 -122.581161 299 18ft 0kts
27-Nov-17 16:56 45.586489 -122.581161 299 18ft 0kts
27-Nov-17 16:57 45.586489 -122.581161 299 18ft 0kts
27-Nov-17 16:58 45.586489 -122.581161 299 18ft 0kts
27-Nov-17 16:59 45.586489 -122.581161 299 18ft 0kts
27-Nov-17 17:00 45.586489 -122.581161 299 18ft 0kts
27-Nov-17 17:01 45.586673 -122.577970 107 18ft 13kts
27-Nov-17 17:02 45.584678 -122.572803 119 18ft 16kts
27-Nov-17 17:03 45.582692 -122.567576 91 18ft 11kts
27-Nov-17 17:04 45.582724 -122.567422 50 18ft 0kts
27-Nov-17 17:05 45.582724 -122.567422 50 18ft 0kts
27-Nov-17 17:06 45.582724 -122.567422 50 18ft 0kts
27-Nov-17 17:07 45.587512 -122.576757 297 78ft 101kts
27-Nov-17 17:08 45.602464 -122.614058 294 1502ft 115kts
27-Nov-17 17:09 45.618430 -122.655519 295 2833ft 120kts
27-Nov-17 17:10 45.634952 -122.695787 310 4134ft 118kts
27-Nov-17 17:11 45.665879 -122.679727 37 5307ft 139kts
27-Nov-17 17:12 45.698314 -122.644676 36 6112ft 161kts
27-Nov-17 17:13 45.737276 -122.602770 33 6158ft 184kts
27-Nov-17 17:14 45.785046 -122.587932 359 6156ft 180kts
27-Nov-17 17:15 45.835582 -122.582959 0 6157ft 184kts
27-Nov-17 17:16 45.887314 -122.577921 2 6157ft 189kts
27-Nov-17 17:17 45.938179 -122.572968 5 6150ft 171kts
27-Nov-17 17:18 45.986921 -122.568179 359 6157ft 180kts
27-Nov-17 17:19 46.036559 -122.563297 0 6156ft 185kts
27-Nov-17 17:20 46.075631 -122.559462 1 5983ft 193kts
27-Nov-17 17:21 46.113410 -122.555711 1 5978ft 191kts
27-Nov-17 17:22 46.152545 -122.551847 1 5978ft 190kts
27-Nov-17 17:23 46.192308 -122.547921 1 5979ft 190kts
27-Nov-17 17:24 46.232409 -122.543957 1 5979ft 190kts
27-Nov-17 17:25 46.272469 -122.539990 1 5979ft 190kts
27-Nov-17 17:26 46.312651 -122.536004 1 5979ft 190kts
27-Nov-17 17:27 46.352100 -122.532084 1 5979ft 190kts
27-Nov-17 17:28 46.391778 -122.528136 1 5979ft 190kts
27-Nov-17 17:29 46.429170 -122.524409 1 5977ft 190kts
27-Nov-17 17:30 46.475226 -122.519812 1 5972ft 189kts
27-Nov-17 17:31 46.526434 -122.514693 1 5966ft 189kts
27-Nov-17 17:32 46.578809 -122.509444 0 5962ft 188kts
27-Nov-17 17:33 46.630063 -122.504289 359 5961ft 185kts
27-Nov-17 17:34 46.669646 -122.500298 359 6008ft 180kts
27-Nov-17 17:35 46.706141 -122.496630 359 6006ft 176kts
27-Nov-17 17:36 46.753469 -122.491859 0 6004ft 171kts
27-Nov-17 17:37 46.800499 -122.487117 1 6001ft 167kts
27-Nov-17 17:38 46.846399 -122.482484 2 5998ft 164kts
27-Nov-17 17:39 46.891885 -122.477880 3 5996ft 163kts
27-Nov-17 17:40 46.937102 -122.473292 4 5996ft 164kts
27-Nov-17 17:41 46.983575 -122.468555 3 6002ft 178kts
27-Nov-17 17:42 47.030016 -122.439218 29 6000ft 186kts
27-Nov-17 17:43 47.075478 -122.402444 26 6000ft 187kts
27-Nov-17 17:44 47.118447 -122.369238 27 5997ft 187kts
27-Nov-17 17:45 47.164415 -122.333733 29 5352ft 201kts
27-Nov-17 17:46 47.213275 -122.295932 29 4657ft 199kts
27-Nov-17 17:47 47.261671 -122.258406 29 3960ft 197kts
27-Nov-17 17:48 47.308658 -122.221916 29 3254ft 185kts
27-Nov-17 17:49 47.351711 -122.188502 28 2627ft 160kts
27-Nov-17 17:50 47.389932 -122.182213 325 2374ft 143kts
27-Nov-17 17:51 47.422790 -122.212564 331 2282ft 141kts
27-Nov-17 17:52 47.454641 -122.237175 322 1652ft 127kts
27-Nov-17 17:53 47.483719 -122.263404 329 870ft 121kts
27-Nov-17 17:54 47.512035 -122.287164 328 235ft 107kts
27-Nov-17 17:55 47.529014 -122.300561 63 15ft 14kts
27-Nov-17 17:56 47.530154 -122.298757 58 18ft 5kts

Navigation Log

Ident Type
Flight plan parsing failed, navigation log unavailable